Terminal Aerodrome Forecast
Issued by NWS Sioux Falls, SD

Home | Current Version | Previous Version | Graphics & Text | Print | Product List | Glossary Off
Versions: 1 2 3 4 5 6 7 8 9 10 11 12 13

000
FTUS43 KFSD 211729
TAFSUX
TAF
KSUX 211729Z 2118/2218 28014G23KT P6SM VCSH OVC035
     FM212000 30014G22KT P6SM BKN040
     FM212300 31012KT P6SM SCT100
     FM220100 30008KT P6SM SCT150
     FM221300 29004KT P6SM SKC=

USA.gov is the U.S. government's official web portal to all federal, state and local government web resources and services.